createdAt,value
2019-03-21T00:02:08.947Z,103298.25
2019-03-21T00:04:36.708Z,103299.11
2019-03-21T00:07:04.451Z,103299.56
2019-03-21T00:09:32.215Z,103292.97
2019-03-21T00:12:06.919Z,103295.15
2019-03-21T00:14:49.640Z,103289.05
2019-03-21T00:17:18.827Z,103292.55
2019-03-21T00:19:46.665Z,103290.80
2019-03-21T00:22:14.399Z,103288.61
2019-03-21T00:24:42.165Z,103287.30
2019-03-21T00:27:09.889Z,103284.69
2019-03-21T00:29:37.589Z,103292.57
2019-03-21T00:32:05.340Z,103292.61
2019-03-21T00:34:33.156Z,103293.47
2019-03-21T00:37:00.948Z,103289.48
2019-03-21T00:39:32.686Z,103289.50
2019-03-21T00:41:58.367Z,103282.91
2019-03-21T00:44:26.096Z,103288.19
2019-03-21T00:46:53.841Z,103294.77
2019-03-21T00:49:21.566Z,103291.70
2019-03-21T00:51:49.330Z,103294.75
2019-03-21T00:54:17.054Z,103296.06
2019-03-21T00:56:44.777Z,103284.24
2019-03-21T00:59:12.523Z,103276.80
2019-03-21T01:01:40.407Z,103280.31
2019-03-21T01:04:08.119Z,103276.38
2019-03-21T01:06:35.938Z,103276.80
2019-03-21T01:09:06.286Z,103277.65
2019-03-21T01:11:34.058Z,103278.98
2019-03-21T01:14:01.815Z,103272.42
2019-03-21T01:16:29.530Z,103272.00
2019-03-21T01:18:57.314Z,103270.25
2019-03-21T01:21:25.047Z,103266.32
2019-03-21T01:23:52.797Z,103269.83
2019-03-21T01:26:20.560Z,103258.01
2019-03-21T01:28:48.480Z,103258.01
2019-03-21T01:31:16.199Z,103256.23
2019-03-21T01:33:44.065Z,103255.39
2019-03-21T01:36:11.850Z,103247.50
2019-03-21T01:38:39.682Z,103254.52
2019-03-21T01:41:07.460Z,103252.28
2019-03-21T01:43:35.202Z,103255.80
2019-03-21T01:46:05.417Z,103246.59
2019-03-21T01:48:33.137Z,103258.42
2019-03-21T01:51:01.042Z,103256.70
2019-03-21T01:53:28.774Z,103251.84
2019-03-21T01:55:56.525Z,103251.84
2019-03-21T01:58:24.197Z,103244.84
2019-03-21T02:00:52.117Z,103241.77
2019-03-21T02:03:19.849Z,103240.92
2019-03-21T02:05:47.651Z,103242.22
2019-03-21T02:08:15.383Z,103235.64
2019-03-21T02:10:43.171Z,103239.59
2019-03-21T02:13:11.039Z,103243.95
2019-03-21T02:15:38.769Z,103239.13
2019-03-21T02:18:06.622Z,103245.27
2019-03-21T02:20:34.393Z,103236.95
2019-03-21T02:23:02.099Z,103232.55
2019-03-21T02:25:29.927Z,103236.06
2019-03-21T02:27:57.754Z,103234.77
2019-03-21T02:30:27.722Z,103239.59
2019-03-21T02:32:58.818Z,103238.67
2019-03-21T02:35:26.610Z,103229.48
2019-03-21T02:37:54.366Z,103233.39
2019-03-21T02:40:22.547Z,103235.15
2019-03-21T02:42:50.238Z,103239.98
2019-03-21T02:45:18.100Z,103233.36
2019-03-21T02:47:46.067Z,103232.47
2019-03-21T02:50:17.109Z,103235.99
2019-03-21T02:52:44.810Z,103232.47
2019-03-21T02:55:12.608Z,103233.34
2019-03-21T02:57:40.345Z,103235.98
2019-03-21T03:00:12.016Z,103235.53
2019-03-21T03:02:39.755Z,103235.95
2019-03-21T03:05:10.213Z,103235.95
2019-03-21T03:07:37.951Z,103235.95
2019-03-21T03:10:08.476Z,103236.43
2019-03-21T03:12:36.319Z,103236.87
2019-03-21T03:15:04.920Z,103235.98
2019-03-21T03:17:32.630Z,103237.71
2019-03-21T03:20:00.650Z,103239.42
2019-03-21T03:22:28.601Z,103235.50
2019-03-21T03:24:56.294Z,103240.74
2019-03-21T03:27:24.107Z,103235.48
2019-03-21T03:29:51.795Z,103237.69
2019-03-21T03:32:19.703Z,103238.97
2019-03-21T03:34:47.623Z,103236.34
2019-03-21T03:37:15.393Z,103235.92
2019-03-21T03:39:43.110Z,103240.76
2019-03-21T03:42:10.946Z,103235.92
2019-03-21T03:44:38.683Z,103237.64
2019-03-21T03:47:06.426Z,103239.42
2019-03-21T03:49:34.274Z,103244.70
2019-03-21T03:52:02.009Z,103239.42
2019-03-21T03:54:29.754Z,103237.27
2019-03-21T03:56:57.450Z,103234.64
2019-03-21T03:59:25.259Z,103235.05
2019-03-21T04:01:52.953Z,103237.27
2019-03-21T04:04:20.640Z,103237.66
2019-03-21T04:06:48.403Z,103235.45
2019-03-21T04:09:16.310Z,103238.95
2019-03-21T04:11:44.085Z,103241.13
2019-03-21T04:14:11.747Z,103241.13
2019-03-21T04:16:39.501Z,103236.28
2019-03-21T04:19:07.197Z,103238.93
2019-03-21T04:21:34.965Z,103239.81
2019-03-21T04:24:02.705Z,103244.23
2019-03-21T04:26:30.685Z,103237.20
2019-03-21T04:28:58.404Z,103235.92
2019-03-21T04:31:26.317Z,103234.64
2019-03-21T04:33:55.775Z,103235.11
2019-03-21T04:36:23.505Z,103233.34
2019-03-21T04:38:51.313Z,103239.50
2019-03-21T04:41:19.077Z,103239.06
2019-03-21T04:43:47.035Z,103241.23
2019-03-21T04:46:14.806Z,103247.83
2019-03-21T04:48:42.570Z,103242.13
2019-03-21T04:51:10.308Z,103239.91
2019-03-21T04:53:38.042Z,103240.80
2019-03-21T04:56:05.862Z,103241.25
2019-03-21T04:58:33.613Z,103240.83
2019-03-21T05:01:01.346Z,103243.01
2019-03-21T05:03:29.111Z,103242.13
2019-03-21T05:05:56.833Z,103243.01
2019-03-21T05:08:24.535Z,103239.06
2019-03-21T05:10:52.303Z,103229.40
2019-03-21T05:13:20.071Z,103235.09
2019-03-21T05:15:47.865Z,103243.86
2019-03-21T05:18:21.857Z,103235.95
2019-03-21T05:20:49.628Z,103237.73
2019-03-21T05:23:17.344Z,103242.53
2019-03-21T05:25:45.216Z,103230.68
2019-03-21T05:28:12.946Z,103233.33
2019-03-21T05:30:46.894Z,103228.06
2019-03-21T05:33:14.776Z,103239.06
2019-03-21T05:35:42.502Z,103242.53
2019-03-21T05:38:10.791Z,103242.53
2019-03-21T05:40:38.564Z,103250.88
2019-03-21T05:43:12.851Z,103249.59
2019-03-21T05:45:40.629Z,103249.16
2019-03-21T05:48:08.533Z,103250.00
2019-03-21T05:50:36.383Z,103249.95
2019-03-21T05:53:04.089Z,103262.19
2019-03-21T05:55:31.846Z,103261.20
2019-03-21T05:57:59.598Z,103259.42
2019-03-21T06:00:30.288Z,103257.63
2019-03-21T06:02:58.283Z,103253.22
2019-03-21T06:05:26.062Z,103260.23
2019-03-21T06:08:09.607Z,103263.34
2019-03-21T06:10:37.527Z,103259.88
2019-03-21T06:13:06.389Z,103265.64
2019-03-21T06:15:35.482Z,103268.33
2019-03-21T06:18:42.363Z,103267.90
2019-03-21T06:21:26.602Z,103271.39
2019-03-21T06:24:20.439Z,103264.34
2019-03-21T06:27:14.900Z,103269.62
2019-03-21T06:29:40.952Z,103275.34
2019-03-21T06:32:08.710Z,103282.34
2019-03-21T06:34:36.483Z,103292.00
2019-03-21T06:37:04.320Z,103285.85
2019-03-21T06:39:32.039Z,103281.05
2019-03-21T06:41:59.875Z,103286.77
2019-03-21T06:44:27.655Z,103285.02
2019-03-21T06:46:55.508Z,103285.48
2019-03-21T06:49:23.203Z,103279.78
2019-03-21T06:51:50.892Z,103293.39
2019-03-21T06:54:18.782Z,103282.87
2019-03-21T06:56:46.609Z,103292.55
2019-03-21T06:59:14.469Z,103286.41
2019-03-21T07:01:42.230Z,103296.46
2019-03-21T07:04:09.942Z,103293.41
2019-03-21T07:06:37.714Z,103287.69
2019-03-21T07:09:06.934Z,103295.61
2019-03-21T07:11:34.688Z,103302.64
2019-03-21T07:14:02.448Z,103304.79
2019-03-21T07:16:30.205Z,103313.56
2019-03-21T07:18:57.985Z,103316.62
2019-03-21T07:21:25.753Z,103312.24
2019-03-21T07:23:53.483Z,103311.37
2019-03-21T07:26:21.184Z,103314.00
2019-03-21T07:28:48.998Z,103313.56
2019-03-21T07:31:17.543Z,103313.52
2019-03-21T07:33:45.416Z,103312.18
2019-03-21T07:36:13.264Z,103316.56
2019-03-21T07:38:41.053Z,103320.05
2019-03-21T07:41:08.794Z,103327.06
2019-03-21T07:43:36.686Z,103324.44
2019-03-21T07:46:07.452Z,103322.69
2019-03-21T07:48:35.139Z,103328.41
2019-03-21T07:51:02.952Z,103329.77
2019-03-21T07:53:30.778Z,103332.41
2019-03-21T07:55:58.472Z,103339.43
2019-03-21T07:58:26.308Z,103333.27
2019-03-21T08:00:54.472Z,103335.50
2019-03-21T08:03:22.189Z,103339.48
2019-03-21T08:05:49.955Z,103346.48
2019-03-21T08:08:17.651Z,103341.69
2019-03-21T08:10:45.480Z,103346.05
2019-03-21T08:13:13.204Z,103348.72
2019-03-21T08:15:40.957Z,103343.47
2019-03-21T08:18:08.727Z,103349.59
2019-03-21T08:20:36.459Z,103347.39
2019-03-21T08:23:04.194Z,103342.11
2019-03-21T08:25:31.915Z,103348.25
2019-03-21T08:27:59.679Z,103337.76
2019-03-21T08:30:33.316Z,103334.70
2019-03-21T08:33:03.054Z,103339.08
2019-03-21T08:35:30.782Z,103337.76
2019-03-21T08:37:58.556Z,103341.27
2019-03-21T08:40:26.288Z,103343.06
2019-03-21T08:42:54.109Z,103347.89
2019-03-21T08:45:21.975Z,103345.70
2019-03-21T08:47:49.753Z,103347.02
2019-03-21T08:50:17.462Z,103348.77
2019-03-21T08:52:45.252Z,103358.02
2019-03-21T08:55:13.076Z,103365.03
2019-03-21T08:57:40.815Z,103355.45
2019-03-21T09:00:08.591Z,103357.63
2019-03-21T09:02:36.340Z,103356.78
2019-03-21T09:05:04.480Z,103368.17
2019-03-21T09:07:32.307Z,103365.55
2019-03-21T09:10:00.178Z,103366.00
2019-03-21T09:12:28.228Z,103367.79
2019-03-21T09:14:56.023Z,103365.58
2019-03-21T09:17:23.784Z,103362.98
2019-03-21T09:19:51.716Z,103355.10
2019-03-21T09:22:19.447Z,103353.31
2019-03-21T09:24:47.314Z,103357.72
2019-03-21T09:27:15.046Z,103355.97
2019-03-21T09:29:53.048Z,103345.89
2019-03-21T09:32:12.483Z,103352.47
2019-03-21T09:34:40.276Z,103350.28
2019-03-21T09:37:07.997Z,103353.81
2019-03-21T09:39:35.862Z,103360.45
2019-03-21T09:42:03.588Z,103352.11
2019-03-21T09:44:31.418Z,103359.97
2019-03-21T09:46:59.187Z,103358.67
2019-03-21T09:49:26.930Z,103360.84
2019-03-21T09:51:54.661Z,103365.70
2019-03-21T09:54:22.368Z,103359.13
2019-03-21T09:56:50.127Z,103356.97
2019-03-21T09:59:18.010Z,103353.02
2019-03-21T10:01:45.789Z,103355.66
2019-03-21T10:04:13.526Z,103363.99
2019-03-21T10:06:41.274Z,103359.61
2019-03-21T10:09:08.987Z,103353.46
2019-03-21T10:11:36.840Z,103345.98
2019-03-21T10:16:25.047Z,103335.50
2019-03-21T10:18:52.766Z,103345.56
2019-03-21T10:21:20.592Z,103349.98
2019-03-21T10:23:48.401Z,103356.59
2019-03-21T10:26:16.146Z,103351.32
2019-03-21T10:28:43.979Z,103350.45
2019-03-21T10:31:11.758Z,103352.25
2019-03-21T10:33:39.537Z,103353.09
2019-03-21T10:36:07.270Z,103360.55
2019-03-21T10:38:35.078Z,103360.56
2019-03-21T10:41:02.802Z,103362.75
2019-03-21T10:43:30.594Z,103358.36
2019-03-21T10:45:58.340Z,103356.19
2019-03-21T10:48:26.078Z,103346.98
2019-03-21T10:50:53.802Z,103347.84
2019-03-21T10:53:21.722Z,103354.48
2019-03-21T10:55:49.470Z,103356.66
2019-03-21T10:58:17.212Z,103353.17
2019-03-21T11:00:45.085Z,103358.42
2019-03-21T11:03:12.810Z,103355.76
2019-03-21T11:05:40.631Z,103358.81
2019-03-21T11:08:08.427Z,103350.07
2019-03-21T11:10:36.191Z,103352.28
2019-03-21T11:13:04.220Z,103354.04
2019-03-21T11:15:31.972Z,103346.20
2019-03-21T11:17:59.710Z,103343.56
2019-03-21T11:20:31.586Z,103339.65
2019-03-21T11:22:59.795Z,103341.44
2019-03-21T11:25:27.611Z,103341.84
2019-03-21T11:27:55.456Z,103344.90
2019-03-21T11:30:31.154Z,103342.73
2019-03-21T11:32:59.107Z,103339.23
2019-03-21T11:35:26.856Z,103336.15
2019-03-21T11:37:54.651Z,103339.26
2019-03-21T11:40:22.399Z,103341.91
2019-03-21T11:42:50.128Z,103338.42
2019-03-21T11:45:17.893Z,103338.41
2019-03-21T11:47:45.612Z,103328.75
2019-03-21T11:50:13.387Z,103337.07
2019-03-21T11:52:41.383Z,103333.56
2019-03-21T11:55:09.711Z,103333.14
2019-03-21T11:57:37.431Z,103335.36
2019-03-21T12:00:05.446Z,103340.64
2019-03-21T12:02:33.159Z,103334.03
2019-03-21T12:05:00.926Z,103342.81
2019-03-21T12:07:28.701Z,103343.69
2019-03-21T12:09:56.462Z,103344.08
2019-03-21T12:12:24.248Z,103348.05
2019-03-21T12:14:52.111Z,103346.75
2019-03-21T12:17:19.821Z,103331.39
2019-03-21T12:19:47.600Z,103341.50
2019-03-21T12:22:15.347Z,103342.82
2019-03-21T12:24:43.115Z,103334.05
2019-03-21T12:27:11.014Z,103334.52
2019-03-21T12:29:38.765Z,103338.04
2019-03-21T12:32:06.567Z,103330.61
2019-03-21T12:34:34.319Z,103325.35
2019-03-21T12:37:02.052Z,103319.22
2019-03-21T12:39:29.880Z,103324.47
2019-03-21T12:41:57.656Z,103318.33
2019-03-21T12:44:25.467Z,103316.58
2019-03-21T12:46:53.385Z,103311.31
2019-03-21T12:49:21.124Z,103316.56
2019-03-21T12:51:48.873Z,103320.53
2019-03-21T12:54:16.671Z,103319.22
2019-03-21T12:56:44.382Z,103320.97
2019-03-21T12:59:12.154Z,103320.11
2019-03-21T13:01:39.912Z,103331.52
2019-03-21T13:04:07.709Z,103338.09
2019-03-21T13:06:35.479Z,103334.12
2019-03-21T13:09:04.749Z,103334.56
2019-03-21T13:11:32.533Z,103342.88
2019-03-21T13:14:01.065Z,103345.97
2019-03-21T13:16:28.798Z,103345.50
2019-03-21T13:18:56.558Z,103347.26
2019-03-21T13:21:25.769Z,103339.34
2019-03-21T13:23:53.777Z,103339.76
2019-03-21T13:26:21.506Z,103342.84
2019-03-21T13:28:49.382Z,103340.20
2019-03-21T13:31:17.204Z,103334.48
2019-03-21T13:33:44.971Z,103335.41
2019-03-21T13:36:12.841Z,103334.96
2019-03-21T13:38:40.596Z,103343.74
2019-03-21T13:41:08.351Z,103340.25
2019-03-21T13:43:36.180Z,103338.03
2019-03-21T13:46:04.044Z,103332.32
2019-03-21T13:48:31.780Z,103325.30
2019-03-21T13:50:59.511Z,103326.16
2019-03-21T13:53:27.303Z,103337.16
2019-03-21T13:55:57.075Z,103334.95
2019-03-21T13:58:24.876Z,103332.75
2019-03-21T14:00:52.625Z,103325.27
2019-03-21T14:03:25.133Z,103320.00
2019-03-21T14:05:50.008Z,103319.14
2019-03-21T14:08:17.780Z,103316.52
2019-03-21T14:10:45.554Z,103308.61
2019-03-21T14:13:13.350Z,103306.45
2019-03-21T14:15:41.103Z,103302.93
2019-03-21T14:18:08.970Z,103310.40
2019-03-21T14:20:36.704Z,103322.67
2019-03-21T14:23:16.025Z,103313.88
2019-03-21T14:25:34.166Z,103298.93
2019-03-21T14:28:01.901Z,103311.70
2019-03-21T14:30:29.664Z,103298.92
2019-03-21T14:32:57.433Z,103311.25
2019-03-21T14:35:25.241Z,103305.08
2019-03-21T14:37:53.185Z,103308.56
2019-03-21T14:40:20.920Z,103310.33
2019-03-21T14:42:49.022Z,103309.91
2019-03-21T14:45:17.147Z,103315.62
2019-03-21T14:47:44.920Z,103312.52
2019-03-21T14:50:13.211Z,103305.48
2019-03-21T14:52:40.943Z,103310.32
2019-03-21T14:55:08.896Z,103321.27
2019-03-21T14:57:37.652Z,103315.56
2019-03-21T15:00:06.807Z,103315.56
2019-03-21T15:02:34.605Z,103310.30
2019-03-21T15:05:02.386Z,103308.96
2019-03-21T15:07:30.119Z,103316.44
2019-03-21T15:09:57.842Z,103312.05
2019-03-21T15:12:25.582Z,103306.31
2019-03-21T15:14:53.272Z,103316.41
2019-03-21T15:17:21.246Z,103306.75
2019-03-21T15:19:48.947Z,103297.97
2019-03-21T15:22:16.704Z,103298.41
2019-03-21T15:24:44.490Z,103301.05
2019-03-21T15:27:12.194Z,103304.60
2019-03-21T15:29:39.931Z,103307.25
2019-03-21T15:32:07.680Z,103305.48
2019-03-21T15:34:35.494Z,103298.91
2019-03-21T15:37:03.324Z,103303.30
2019-03-21T15:39:31.154Z,103304.16
2019-03-21T15:41:58.872Z,103297.98
2019-03-21T15:44:26.654Z,103302.38
2019-03-21T15:46:54.388Z,103304.59
2019-03-21T15:49:22.105Z,103309.43
2019-03-21T15:51:49.875Z,103309.42
2019-03-21T15:54:17.630Z,103309.83
2019-03-21T15:56:45.387Z,103309.81
2019-03-21T15:59:13.183Z,103308.05
2019-03-21T16:01:40.922Z,103315.52
2019-03-21T16:04:08.672Z,103318.16
2019-03-21T16:06:36.470Z,103310.67
2019-03-21T16:09:06.339Z,103316.38
2019-03-21T16:11:34.111Z,103313.75
2019-03-21T16:14:01.908Z,103319.45
2019-03-21T16:16:29.787Z,103314.17
2019-03-21T16:18:57.541Z,103309.36
2019-03-21T16:21:25.279Z,103302.77
2019-03-21T16:24:04.176Z,103311.54
2019-03-21T16:26:22.749Z,103311.09
2019-03-21T16:28:50.451Z,103304.06
2019-03-21T16:31:18.552Z,103312.34
2019-03-21T16:33:46.243Z,103311.07
2019-03-21T16:36:13.946Z,103308.00
2019-03-21T16:38:41.699Z,103304.05
2019-03-21T16:41:09.419Z,103310.21
2019-03-21T16:43:37.159Z,103307.58
2019-03-21T16:46:04.890Z,103309.76
2019-03-21T16:48:32.654Z,103315.85
2019-03-21T16:51:02.906Z,103305.77
2019-03-21T16:53:30.078Z,103299.17
2019-03-21T16:55:57.850Z,103303.97
2019-03-21T16:58:25.598Z,103297.86
2019-03-21T17:00:53.320Z,103299.19
2019-03-21T17:03:21.020Z,103300.02
2019-03-21T17:05:48.802Z,103296.55
2019-03-21T17:08:16.530Z,103306.20
2019-03-21T17:10:44.353Z,103300.49
2019-03-21T17:13:12.156Z,103307.94
2019-03-21T17:15:40.007Z,103307.53
2019-03-21T17:18:07.763Z,103301.35
2019-03-21T17:20:35.540Z,103300.49
2019-03-21T17:23:03.270Z,103307.50
2019-03-21T17:25:31.476Z,103304.41
2019-03-21T17:27:59.511Z,103309.24
2019-03-21T17:30:27.248Z,103312.28
2019-03-21T17:32:54.998Z,103311.86
2019-03-21T17:35:22.907Z,103315.80
2019-03-21T17:37:50.638Z,103317.11
2019-03-21T17:40:18.421Z,103317.09
2019-03-21T17:42:46.136Z,103320.62
2019-03-21T17:45:14.160Z,103318.86
2019-03-21T17:47:41.940Z,103320.18
2019-03-21T17:50:10.179Z,103324.56
2019-03-21T17:52:37.943Z,103308.33
2019-03-21T17:55:05.877Z,103304.38
2019-03-21T17:57:34.872Z,103311.81
2019-03-21T18:00:04.109Z,103316.69
2019-03-21T18:02:31.914Z,103320.21
2019-03-21T18:04:59.669Z,103310.98
2019-03-21T18:07:28.420Z,103306.59
2019-03-21T18:09:56.200Z,103307.48
2019-03-21T18:12:23.888Z,103310.96
2019-03-21T18:14:51.718Z,103314.48
2019-03-21T18:17:19.456Z,103313.63
2019-03-21T18:19:47.184Z,103311.43
2019-03-21T18:22:14.990Z,103308.36
2019-03-21T18:24:53.460Z,103304.37
2019-03-21T18:27:12.571Z,103313.59
2019-03-21T18:29:40.334Z,103308.36
2019-03-21T18:32:08.050Z,103314.51
2019-03-21T18:34:35.933Z,103314.05
2019-03-21T18:37:03.718Z,103312.28
2019-03-21T18:39:31.789Z,103311.42
2019-03-21T18:41:59.650Z,103311.44
2019-03-21T18:44:27.884Z,103315.38
2019-03-21T18:46:55.858Z,103313.19
2019-03-21T18:49:23.689Z,103315.83
2019-03-21T18:51:51.459Z,103321.09
2019-03-21T18:54:19.410Z,103321.50
2019-03-21T18:56:47.368Z,103328.98
2019-03-21T18:59:15.157Z,103324.11
2019-03-21T19:01:42.890Z,103329.38
2019-03-21T19:04:10.618Z,103330.27
2019-03-21T19:06:38.372Z,103332.91
2019-03-21T19:09:07.478Z,103340.78
2019-03-21T19:11:35.216Z,103342.95
2019-03-21T19:14:02.970Z,103340.75
2019-03-21T19:16:32.067Z,103338.58
2019-03-21T19:19:00.011Z,103330.70
2019-03-21T19:21:27.848Z,103334.66
2019-03-21T19:23:55.808Z,103332.48
2019-03-21T19:26:23.585Z,103335.54
2019-03-21T19:28:51.938Z,103343.02
2019-03-21T19:31:20.074Z,103346.98
2019-03-21T19:33:47.936Z,103348.31
2019-03-21T19:36:15.992Z,103347.42
2019-03-21T19:38:43.775Z,103339.52
2019-03-21T19:41:11.727Z,103337.78
2019-03-21T19:43:39.498Z,103340.41
2019-03-21T19:46:07.254Z,103350.55
2019-03-21T19:48:35.017Z,103346.58
2019-03-21T19:51:02.747Z,103357.98
2019-03-21T19:53:30.605Z,103354.92
2019-03-21T19:56:08.025Z,103362.88
2019-03-21T19:58:28.062Z,103369.03
2019-03-21T20:00:55.780Z,103365.50
2019-03-21T20:03:23.484Z,103365.06
2019-03-21T20:05:59.954Z,103371.16
2019-03-21T20:08:20.899Z,103375.98
2019-03-21T20:10:48.742Z,103367.26
2019-03-21T20:13:16.456Z,103371.59
2019-03-21T20:15:44.198Z,103363.69
2019-03-21T20:18:11.984Z,103372.10
2019-03-21T20:20:39.706Z,103376.42
2019-03-21T20:23:07.442Z,103369.82
2019-03-21T20:25:42.959Z,103380.81
2019-03-21T20:28:04.832Z,103380.78
2019-03-21T20:30:32.583Z,103381.66
2019-03-21T20:33:00.374Z,103385.60
2019-03-21T20:35:28.085Z,103390.87
2019-03-21T20:37:55.959Z,103384.70
2019-03-21T20:40:23.759Z,103384.27
2019-03-21T20:42:51.559Z,103393.91
2019-03-21T20:45:19.295Z,103391.27
2019-03-21T20:47:47.114Z,103396.94
2019-03-21T20:50:14.858Z,103397.38
2019-03-21T20:52:42.596Z,103404.41
2019-03-21T20:55:10.385Z,103405.28
2019-03-21T20:57:38.194Z,103404.44
2019-03-21T21:00:07.039Z,103407.07
2019-03-21T21:02:34.794Z,103407.47
2019-03-21T21:05:02.510Z,103400.88
2019-03-21T21:07:30.294Z,103400.43
2019-03-21T21:09:58.034Z,103398.69
2019-03-21T21:12:25.794Z,103400.45
2019-03-21T21:14:53.533Z,103400.85
2019-03-21T21:17:21.401Z,103396.06
2019-03-21T21:19:49.258Z,103390.80
2019-03-21T21:22:16.985Z,103390.77
2019-03-21T21:24:44.762Z,103394.27
2019-03-21T21:27:12.617Z,103386.84
2019-03-21T21:29:42.897Z,103388.16
2019-03-21T21:32:10.073Z,103387.69
2019-03-21T21:34:37.925Z,103389.00
2019-03-21T21:37:05.691Z,103384.61
2019-03-21T21:39:33.452Z,103384.21
2019-03-21T21:42:01.258Z,103378.05
2019-03-21T21:44:28.986Z,103371.45
2019-03-21T21:46:56.713Z,103371.47
2019-03-21T21:49:24.467Z,103373.23
2019-03-21T21:51:52.258Z,103364.02
2019-03-21T21:54:20.055Z,103363.57
2019-03-21T21:56:47.783Z,103373.69
2019-03-21T21:59:15.609Z,103387.23
2019-03-21T22:01:43.383Z,103372.77
2019-03-21T22:04:11.139Z,103374.50
2019-03-21T22:06:38.867Z,103375.80
2019-03-21T22:09:08.265Z,103374.92
2019-03-21T22:11:36.053Z,103379.34
2019-03-21T22:14:04.174Z,103370.54
2019-03-21T22:16:31.896Z,103376.72
2019-03-21T22:18:59.666Z,103374.08
2019-03-21T22:21:27.529Z,103371.02
2019-03-21T22:23:55.243Z,103371.91
2019-03-21T22:26:29.610Z,103374.50
2019-03-21T22:28:52.672Z,103369.22
2019-03-21T22:31:20.410Z,103380.19
2019-03-21T22:33:48.279Z,103380.66
2019-03-21T22:36:16.032Z,103376.72
2019-03-21T22:38:43.827Z,103381.11
2019-03-21T22:41:11.556Z,103385.95
2019-03-21T22:43:39.267Z,103378.47
2019-03-21T22:46:07.029Z,103378.47
2019-03-21T22:48:34.869Z,103386.37
2019-03-21T22:51:02.834Z,103385.52
2019-03-21T22:53:30.617Z,103381.55
2019-03-21T22:55:58.325Z,103389.88
2019-03-21T22:58:31.628Z,103383.35
2019-03-21T23:00:55.888Z,103377.63
2019-03-21T23:03:23.587Z,103371.05
2019-03-21T23:05:51.325Z,103369.73
2019-03-21T23:08:19.045Z,103370.17
2019-03-21T23:10:47.000Z,103378.47
2019-03-21T23:13:16.860Z,103372.38
2019-03-21T23:15:44.667Z,103364.43
2019-03-21T23:18:12.382Z,103367.95
2019-03-21T23:20:40.198Z,103368.36
2019-03-21T23:23:07.978Z,103364.84
2019-03-21T23:25:35.814Z,103358.28
2019-03-21T23:28:03.638Z,103347.80
2019-03-21T23:30:33.396Z,103345.16
2019-03-21T23:33:01.573Z,103354.80
2019-03-21T23:35:29.431Z,103341.20
2019-03-21T23:37:57.299Z,103340.75
2019-03-21T23:40:25.193Z,103339.86
2019-03-21T23:42:53.008Z,103338.95
2019-03-21T23:45:20.837Z,103325.78
2019-03-21T23:47:48.645Z,103323.58
2019-03-21T23:50:16.562Z,103326.22
2019-03-21T23:52:44.432Z,103332.80
2019-03-21T23:55:12.372Z,103331.94
2019-03-21T23:57:40.248Z,103331.96
